Time;durP1;ratioP1;P1;durP2;ratioP2;P2;SDS_P1;SDS_P2;PMS_P1;PMS_P2;Temp;Humidity;BMP_temperature;BMP_pressure;BME280_temperature;BME280_humidity;BME280_pressure;Samples;Min_cycle;Max_cycle;Signal;HPM_P1;HPM_P2
2021/08/16 00:02:05;;;;;;;12.80;6.93;;;;;;;;;;4996813;28;20433;-73
2021/08/16 00:04:31;;;;;;;14.07;7.50;;;;;;;;;;4996655;28;20413;-73
2021/08/16 00:06:57;;;;;;;12.77;7.30;;;;;;;;;;4997877;28;20408;-71
2021/08/16 00:09:23;;;;;;;13.23;8.07;;;;;;;;;;4995304;28;20511;-72
2021/08/16 00:11:50;;;;;;;13.40;7.57;;;;;;;;;;4997345;28;20455;-72
2021/08/16 00:14:16;;;;;;;12.63;7.73;;;;;;;;;;4996397;28;20432;-72
2021/08/16 00:16:42;;;;;;;9.50;7.43;;;;;;;;;;4997303;28;20480;-72
2021/08/16 00:19:08;;;;;;;10.47;7.27;;;;;;;;;;4996347;28;20424;-72
2021/08/16 00:21:34;;;;;;;14.33;9.53;;;;;;;;;;4996675;28;20807;-72
2021/08/16 00:24:00;;;;;;;9.27;8.20;;;;;;;;;;4995199;28;20783;-72
2021/08/16 00:26:26;;;;;;;13.23;8.70;;;;;;;;;;4997080;28;20549;-72
2021/08/16 00:28:52;;;;;;;16.10;10.33;;;;;;;;;;4996463;28;20435;-71
2021/08/16 00:31:18;;;;;;;12.40;8.93;;;;;;;;;;4995720;28;20439;-72
2021/08/16 00:33:44;;;;;;;12.90;8.67;;;;;;;;;;4996869;28;20439;-72
2021/08/16 00:36:10;;;;;;;15.17;9.10;;;;;;;;;;5011915;28;20452;-71
2021/08/16 00:38:36;;;;;;;13.80;10.20;;;;;;;;;;4995417;28;20424;-71
2021/08/16 00:41:02;;;;;;;14.80;9.67;;;;;;;;;;4995666;28;21020;-73
2021/08/16 00:43:28;;;;;;;13.27;9.20;;;;;;;;;;4995718;28;20429;-71
2021/08/16 00:45:55;;;;;;;14.97;9.50;;;;;;;;;;5011209;28;20435;-72
2021/08/16 00:48:21;;;;;;;12.20;8.97;;;;;;;;;;4995348;28;20421;-71
2021/08/16 00:50:47;;;;;;;20.63;8.53;;;;;;;;;;4996696;28;20464;-72
2021/08/16 00:53:14;;;;;;;12.23;8.37;;;;;;;;;;4995981;28;20850;-72
2021/08/16 00:55:40;;;;;;;10.40;8.60;;;;;;;;;;4996006;28;20450;-72
2021/08/16 00:58:06;;;;;;;13.80;8.97;;;;;;;;;;4994973;28;20855;-71
2021/08/16 01:00:32;;;;;;;10.47;7.80;;;;;;;;;;4996601;28;20830;-71
2021/08/16 01:03:00;;;;;;;11.60;8.47;;;;;;;;;;4994946;28;20789;-73
2021/08/16 01:05:26;;;;;;;11.70;8.50;;;;;;;;;;4996039;28;20409;-72
2021/08/16 01:07:52;;;;;;;16.10;8.03;;;;;;;;;;4995994;28;20407;-71
2021/08/16 01:10:18;;;;;;;19.33;8.00;;;;;;;;;;4995847;28;20416;-72
2021/08/16 01:12:44;;;;;;;16.23;9.07;;;;;;;;;;4997436;28;20420;-72
2021/08/16 01:15:12;;;;;;;9.90;8.23;;;;;;;;;;4995117;28;20552;-71
2021/08/16 01:17:39;;;;;;;11.67;8.07;;;;;;;;;;4995975;28;20471;-72
2021/08/16 01:20:06;;;;;;;9.73;6.90;;;;;;;;;;4996023;28;20467;-73
2021/08/16 01:22:33;;;;;;;15.43;7.83;;;;;;;;;;4995488;28;20448;-73
2021/08/16 01:24:59;;;;;;;10.47;7.83;;;;;;;;;;4994711;28;20474;-72
2021/08/16 01:27:25;;;;;;;10.37;7.60;;;;;;;;;;4995422;28;20407;-73
2021/08/16 01:29:51;;;;;;;10.97;7.90;;;;;;;;;;4989559;28;20795;-72
2021/08/16 01:32:17;;;;;;;9.00;6.00;;;;;;;;;;4986753;28;20934;-72
2021/08/16 01:34:43;;;;;;;9.07;6.47;;;;;;;;;;4994661;28;20460;-72
2021/08/16 01:37:09;;;;;;;16.30;7.53;;;;;;;;;;4993881;28;20555;-72
2021/08/16 01:39:35;;;;;;;11.20;8.10;;;;;;;;;;4995099;28;20428;-72
2021/08/16 01:42:01;;;;;;;11.63;7.37;;;;;;;;;;4995275;28;20490;-72
2021/08/16 01:44:27;;;;;;;20.83;8.30;;;;;;;;;;4994177;28;20424;-72
2021/08/16 01:46:55;;;;;;;12.77;9.17;;;;;;;;;;4994937;28;20551;-72
2021/08/16 01:49:21;;;;;;;15.00;8.37;;;;;;;;;;4994928;28;20506;-72
2021/08/16 01:51:47;;;;;;;18.83;8.20;;;;;;;;;;4996243;28;20957;-72
2021/08/16 01:54:14;;;;;;;8.53;7.40;;;;;;;;;;4994126;28;20428;-72
2021/08/16 01:56:40;;;;;;;15.20;8.30;;;;;;;;;;4994736;28;21041;-71
2021/08/16 01:59:06;;;;;;;12.87;8.53;;;;;;;;;;4994799;28;20536;-71
2021/08/16 02:01:33;;;;;;;12.13;7.87;;;;;;;;;;4995201;28;20424;-71
2021/08/16 02:03:59;;;;;;;13.40;9.20;;;;;;;;;;4993774;28;20511;-71
2021/08/16 02:06:25;;;;;;;13.97;9.67;;;;;;;;;;4994703;28;20455;-71
2021/08/16 02:08:51;;;;;;;15.73;10.10;;;;;;;;;;4994566;28;20408;-71
2021/08/16 02:11:17;;;;;;;15.43;8.90;;;;;;;;;;4994608;28;20936;-71
2021/08/16 02:13:43;;;;;;;16.60;10.03;;;;;;;;;;4995014;28;20407;-71
2021/08/16 02:16:09;;;;;;;12.53;9.40;;;;;;;;;;4992939;28;20456;-71
2021/08/16 02:18:35;;;;;;;12.80;9.30;;;;;;;;;;4994972;28;20416;-70
2021/08/16 02:21:01;;;;;;;14.17;11.00;;;;;;;;;;4994616;28;20448;-70
2021/08/16 02:23:27;;;;;;;12.40;9.80;;;;;;;;;;4994374;28;20401;-70
2021/08/16 02:25:53;;;;;;;12.70;8.93;;;;;;;;;;4993617;28;20416;-70
2021/08/16 02:28:19;;;;;;;13.43;9.37;;;;;;;;;;4994866;28;20409;-70
2021/08/16 02:30:46;;;;;;;15.70;10.37;;;;;;;;;;4994476;28;20455;-70
2021/08/16 02:33:15;;;;;;;12.27;9.50;;;;;;;;;;4994474;28;20492;-70
2021/08/16 02:35:42;;;;;;;12.10;8.53;;;;;;;;;;4992819;28;20925;-70
2021/08/16 02:38:08;;;;;;;11.07;9.13;;;;;;;;;;4994361;28;20423;-70
2021/08/16 02:40:34;;;;;;;16.33;10.30;;;;;;;;;;4993797;28;20491;-70
2021/08/16 02:43:00;;;;;;;12.17;9.43;;;;;;;;;;4994289;28;20413;-71
2021/08/16 02:45:26;;;;;;;20.10;9.80;;;;;;;;;;5000161;28;20428;-70
2021/08/16 02:47:53;;;;;;;13.37;9.50;;;;;;;;;;4994023;28;20436;-70
2021/08/16 02:50:19;;;;;;;20.20;9.40;;;;;;;;;;4993697;28;20434;-71
2021/08/16 02:52:45;;;;;;;16.07;9.80;;;;;;;;;;4993429;28;20412;-71
2021/08/16 02:55:11;;;;;;;12.70;9.23;;;;;;;;;;4991694;28;20416;-70
2021/08/16 02:57:37;;;;;;;13.70;8.97;;;;;;;;;;4993788;28;20961;-70
2021/08/16 03:00:04;;;;;;;10.90;8.70;;;;;;;;;;4990022;28;20795;-71
2021/08/16 03:02:30;;;;;;;15.20;9.00;;;;;;;;;;4982663;28;20425;-70
2021/08/16 03:04:56;;;;;;;13.13;9.27;;;;;;;;;;4993712;28;20541;-71
2021/08/16 03:07:22;;;;;;;11.57;9.07;;;;;;;;;;4992465;28;20475;-70
2021/08/16 03:09:49;;;;;;;13.47;10.10;;;;;;;;;;4993756;28;20941;-70
2021/08/16 03:12:15;;;;;;;17.87;10.03;;;;;;;;;;4993631;28;20519;-70
2021/08/16 03:14:41;;;;;;;17.57;10.27;;;;;;;;;;4994399;28;20932;-70
2021/08/16 03:17:07;;;;;;;17.20;11.73;;;;;;;;;;4993596;28;20467;-70
2021/08/16 03:19:33;;;;;;;15.60;10.93;;;;;;;;;;4992855;28;20449;-70
2021/08/16 03:21:59;;;;;;;14.53;10.57;;;;;;;;;;4994210;28;20437;-70
2021/08/16 03:24:26;;;;;;;15.97;10.80;;;;;;;;;;4993623;28;20401;-70
2021/08/16 03:26:52;;;;;;;18.07;10.07;;;;;;;;;;4993890;28;20424;-70
2021/08/16 03:29:18;;;;;;;13.27;10.00;;;;;;;;;;4993357;28;20416;-71
2021/08/16 03:31:44;;;;;;;13.90;9.40;;;;;;;;;;5012279;28;20467;-70
2021/08/16 03:34:10;;;;;;;13.33;9.70;;;;;;;;;;5012965;28;20446;-71
2021/08/16 03:36:36;;;;;;;15.47;9.40;;;;;;;;;;4991553;28;20483;-71
2021/08/16 03:39:03;;;;;;;13.83;8.77;;;;;;;;;;4993244;28;20760;-70
2021/08/16 03:41:29;;;;;;;13.63;9.73;;;;;;;;;;4993219;28;20464;-70
2021/08/16 03:43:55;;;;;;;14.50;9.20;;;;;;;;;;4991561;28;20421;-70
2021/08/16 03:46:21;;;;;;;11.97;10.37;;;;;;;;;;4992873;28;20428;-70
2021/08/16 03:48:47;;;;;;;13.40;9.10;;;;;;;;;;4993427;28;20815;-70
2021/08/16 03:51:13;;;;;;;14.00;8.93;;;;;;;;;;4992900;28;20452;-70
2021/08/16 03:53:39;;;;;;;19.60;11.80;;;;;;;;;;4993440;28;20405;-71
2021/08/16 03:56:06;;;;;;;13.07;9.10;;;;;;;;;;4993195;28;20460;-71
2021/08/16 03:58:33;;;;;;;12.80;8.77;;;;;;;;;;4993464;28;20405;-71
2021/08/16 04:00:59;;;;;;;20.00;9.33;;;;;;;;;;4997899;28;20440;-70
2021/08/16 04:03:25;;;;;;;15.30;9.87;;;;;;;;;;4993564;28;20487;-70
2021/08/16 04:05:51;;;;;;;11.43;8.60;;;;;;;;;;4995591;28;20425;-70
2021/08/16 04:08:17;;;;;;;13.17;8.73;;;;;;;;;;4997512;28;20821;-70
2021/08/16 04:10:43;;;;;;;10.27;8.40;;;;;;;;;;4996620;28;20953;-70
2021/08/16 04:13:09;;;;;;;20.47;11.03;;;;;;;;;;4996764;28;20396;-70
2021/08/16 04:15:35;;;;;;;13.60;8.93;;;;;;;;;;4995844;28;20786;-70
2021/08/16 04:18:01;;;;;;;12.80;9.70;;;;;;;;;;4996575;28;20464;-70
2021/08/16 04:20:27;;;;;;;16.90;9.83;;;;;;;;;;5007295;28;20448;-70
2021/08/16 04:22:53;;;;;;;22.87;9.70;;;;;;;;;;4996938;28;20433;-70
2021/08/16 04:25:20;;;;;;;15.83;9.97;;;;;;;;;;4996551;28;20420;-71
2021/08/16 04:27:48;;;;;;;15.47;10.37;;;;;;;;;;4996590;28;20428;-71
2021/08/16 04:30:14;;;;;;;13.23;9.63;;;;;;;;;;4996195;28;20417;-70
2021/08/16 04:32:40;;;;;;;14.40;9.00;;;;;;;;;;4996720;28;20407;-71
2021/08/16 04:35:07;;;;;;;13.10;8.87;;;;;;;;;;4996747;28;20451;-71
2021/08/16 04:37:41;;;;;;;12.30;9.40;;;;;;;;;;4996620;28;20931;-73
2021/08/16 04:40:08;;;;;;;14.30;9.87;;;;;;;;;;5010010;28;20439;-72
2021/08/16 04:42:34;;;;;;;17.40;9.60;;;;;;;;;;4997310;28;20779;-71
2021/08/16 04:45:00;;;;;;;14.23;9.97;;;;;;;;;;4996184;28;20424;-72
2021/08/16 04:47:26;;;;;;;16.13;9.60;;;;;;;;;;4996993;28;20487;-72
2021/08/16 04:49:56;;;;;;;13.60;7.97;;;;;;;;;;4995027;28;20428;-72
2021/08/16 04:52:23;;;;;;;15.83;9.37;;;;;;;;;;4996268;28;20428;-72
2021/08/16 04:54:49;;;;;;;13.87;8.50;;;;;;;;;;4996946;28;20417;-72
2021/08/16 04:57:15;;;;;;;13.17;9.23;;;;;;;;;;4994453;28;20482;-72
2021/08/16 04:59:41;;;;;;;18.53;11.60;;;;;;;;;;4995981;28;20941;-71
2021/08/16 05:02:06;;;;;;;11.00;7.73;;;;;;;;;;4995208;28;20547;-72
2021/08/16 05:04:33;;;;;;;8.97;7.60;;;;;;;;;;4996504;28;20432;-72
2021/08/16 05:06:59;;;;;;;10.60;7.87;;;;;;;;;;4996327;28;20409;-72
2021/08/16 05:09:25;;;;;;;13.30;8.10;;;;;;;;;;5015342;28;20776;-71
2021/08/16 05:11:51;;;;;;;13.27;7.97;;;;;;;;;;5000101;28;20487;-74
2021/08/16 05:14:17;;;;;;;14.20;7.97;;;;;;;;;;4996291;28;20413;-72
2021/08/16 05:16:43;;;;;;;12.17;8.00;;;;;;;;;;4995317;28;20584;-72
2021/08/16 05:19:09;;;;;;;12.00;8.70;;;;;;;;;;4995779;28;20551;-71
2021/08/16 05:21:35;;;;;;;11.87;8.10;;;;;;;;;;4996537;28;20433;-71
2021/08/16 05:24:01;;;;;;;8.63;6.70;;;;;;;;;;5011128;28;20462;-72
2021/08/16 05:26:27;;;;;;;10.13;7.53;;;;;;;;;;5010864;28;20435;-72
2021/08/16 05:28:53;;;;;;;16.00;7.37;;;;;;;;;;4995535;28;20447;-72
2021/08/16 05:31:19;;;;;;;12.63;7.77;;;;;;;;;;4996355;28;20438;-72
2021/08/16 05:33:45;;;;;;;12.77;7.43;;;;;;;;;;4997591;28;20859;-72
2021/08/16 05:36:11;;;;;;;9.27;6.87;;;;;;;;;;4996563;28;20498;-72
2021/08/16 05:38:37;;;;;;;9.80;6.90;;;;;;;;;;4995531;28;20462;-71
2021/08/16 05:41:03;;;;;;;9.73;5.73;;;;;;;;;;4995863;28;20448;-71
2021/08/16 05:43:29;;;;;;;11.63;9.37;;;;;;;;;;4994743;28;20479;-71
2021/08/16 05:45:55;;;;;;;6.90;6.20;;;;;;;;;;4996163;28;20898;-71
2021/08/16 05:48:21;;;;;;;7.70;6.77;;;;;;;;;;4996671;28;20433;-70
2021/08/16 05:50:47;;;;;;;7.13;6.13;;;;;;;;;;4995356;28;20451;-72
2021/08/16 05:53:13;;;;;;;8.87;6.27;;;;;;;;;;4994150;28;20425;-72
2021/08/16 05:55:39;;;;;;;9.40;5.40;;;;;;;;;;4995015;28;20405;-71
2021/08/16 05:58:05;;;;;;;8.33;6.10;;;;;;;;;;4995428;28;20988;-72
2021/08/16 06:00:31;;;;;;;7.37;4.97;;;;;;;;;;4994696;28;20921;-73
2021/08/16 06:02:57;;;;;;;9.23;4.90;;;;;;;;;;4994290;28;20962;-71
2021/08/16 06:05:24;;;;;;;7.13;5.10;;;;;;;;;;4993783;28;20750;-71
2021/08/16 06:07:50;;;;;;;7.97;5.27;;;;;;;;;;4999787;28;20431;-71
2021/08/16 06:10:16;;;;;;;8.57;5.30;;;;;;;;;;5014694;28;20399;-71
2021/08/16 06:12:42;;;;;;;5.80;4.73;;;;;;;;;;5009708;28;20448;-71
2021/08/16 06:15:09;;;;;;;6.80;4.47;;;;;;;;;;4995571;28;20767;-71
2021/08/16 06:17:37;;;;;;;5.63;4.60;;;;;;;;;;4995379;28;20540;-71
2021/08/16 06:20:04;;;;;;;5.23;4.73;;;;;;;;;;4994719;28;20467;-71
2021/08/16 06:22:30;;;;;;;9.67;5.37;;;;;;;;;;4993809;28;20440;-71
2021/08/16 06:24:56;;;;;;;5.43;4.57;;;;;;;;;;4992403;28;20440;-71
2021/08/16 06:27:22;;;;;;;7.17;5.50;;;;;;;;;;4995227;28;20415;-72
2021/08/16 06:29:48;;;;;;;8.77;5.37;;;;;;;;;;4993254;28;20412;-71
2021/08/16 06:32:14;;;;;;;8.30;5.50;;;;;;;;;;4994471;28;20425;-74
2021/08/16 06:34:42;;;;;;;5.53;4.13;;;;;;;;;;4993368;28;20455;-71
2021/08/16 06:37:08;;;;;;;6.30;4.67;;;;;;;;;;4995525;28;20955;-71
2021/08/16 06:39:34;;;;;;;8.00;4.60;;;;;;;;;;4993717;28;20451;-71
2021/08/16 06:42:00;;;;;;;8.03;4.63;;;;;;;;;;4994640;28;20439;-71
2021/08/16 06:44:26;;;;;;;8.13;4.50;;;;;;;;;;4993917;28;20816;-72
2021/08/16 06:46:53;;;;;;;5.80;4.50;;;;;;;;;;4990064;28;20475;-71
2021/08/16 06:49:19;;;;;;;7.17;5.43;;;;;;;;;;4988484;28;20490;-72
2021/08/16 06:51:45;;;;;;;6.47;4.53;;;;;;;;;;4980140;28;20455;-71
2021/08/16 06:54:12;;;;;;;12.67;4.77;;;;;;;;;;4982066;28;20784;-70
2021/08/16 06:56:38;;;;;;;8.53;4.93;;;;;;;;;;5000428;28;20469;-69
2021/08/16 06:59:04;;;;;;;4.93;3.90;;;;;;;;;;4988245;28;20428;-72
2021/08/16 07:01:30;;;;;;;6.90;4.60;;;;;;;;;;4982251;28;20440;-72
2021/08/16 07:03:57;;;;;;;7.90;4.30;;;;;;;;;;4984993;28;20425;-72
2021/08/16 07:06:23;;;;;;;6.20;3.97;;;;;;;;;;4991288;28;20786;-73
2021/08/16 07:08:50;;;;;;;5.30;3.83;;;;;;;;;;4982160;28;20428;-71
2021/08/16 07:11:16;;;;;;;8.10;3.67;;;;;;;;;;4975003;28;20524;-72
2021/08/16 07:13:42;;;;;;;7.20;3.93;;;;;;;;;;4984051;28;20439;-71
2021/08/16 07:16:08;;;;;;;7.20;3.80;;;;;;;;;;4995854;28;20840;-71
2021/08/16 07:18:34;;;;;;;7.57;4.50;;;;;;;;;;4986211;28;20502;-73
2021/08/16 07:21:04;;;;;;;6.07;4.30;;;;;;;;;;4986032;28;20518;-72
2021/08/16 07:23:31;;;;;;;5.70;4.10;;;;;;;;;;4993501;28;20803;-73
2021/08/16 07:26:00;;;;;;;5.73;4.00;;;;;;;;;;4991101;28;20417;-71
2021/08/16 07:28:30;;;;;;;4.47;3.77;;;;;;;;;;4988076;28;20424;-71
2021/08/16 07:30:57;;;;;;;7.47;4.73;;;;;;;;;;4988469;28;21368;-70
2021/08/16 07:33:23;;;;;;;8.00;4.47;;;;;;;;;;4981439;28;20428;-72
2021/08/16 07:35:49;;;;;;;5.40;4.33;;;;;;;;;;4989852;28;20507;-70
2021/08/16 07:38:15;;;;;;;6.97;4.03;;;;;;;;;;4988877;28;20439;-71
2021/08/16 07:40:41;;;;;;;6.10;4.60;;;;;;;;;;4986931;28;20822;-72
2021/08/16 07:43:07;;;;;;;6.33;4.60;;;;;;;;;;5006526;28;20908;-72
2021/08/16 07:45:33;;;;;;;7.33;5.00;;;;;;;;;;4989720;28;20940;-72
2021/08/16 07:47:59;;;;;;;5.87;3.70;;;;;;;;;;4986098;28;20484;-73
2021/08/16 07:50:25;;;;;;;8.07;4.37;;;;;;;;;;5000496;28;20431;-72
2021/08/16 07:52:53;;;;;;;5.73;4.77;;;;;;;;;;4994236;28;20436;-70
2021/08/16 07:55:19;;;;;;;7.10;4.77;;;;;;;;;;4991580;28;20519;-71
2021/08/16 07:57:45;;;;;;;5.80;5.00;;;;;;;;;;4985623;28;21099;-73
2021/08/16 08:00:11;;;;;;;7.80;4.53;;;;;;;;;;4987888;28;20428;-73
2021/08/16 08:02:38;;;;;;;8.07;4.43;;;;;;;;;;4987727;28;20488;-72
2021/08/16 08:05:05;;;;;;;6.80;4.67;;;;;;;;;;4992916;28;20427;-72
2021/08/16 08:07:31;;;;;;;6.60;4.50;;;;;;;;;;4989899;28;20420;-72
2021/08/16 08:09:57;;;;;;;7.20;4.83;;;;;;;;;;4991863;28;20431;-71
2021/08/16 08:12:23;;;;;;;5.87;4.27;;;;;;;;;;4989033;28;20432;-71
2021/08/16 08:14:49;;;;;;;9.30;4.70;;;;;;;;;;4995510;28;20413;-71
2021/08/16 08:17:15;;;;;;;9.40;4.63;;;;;;;;;;4989738;28;20506;-72
2021/08/16 08:19:41;;;;;;;6.43;4.63;;;;;;;;;;4987746;28;20426;-71
2021/08/16 08:22:07;;;;;;;6.33;4.37;;;;;;;;;;4988998;28;20523;-71
2021/08/16 08:24:33;;;;;;;9.00;4.70;;;;;;;;;;4990970;28;20512;-71
2021/08/16 08:26:59;;;;;;;5.53;4.40;;;;;;;;;;4986807;28;20514;-71
2021/08/16 08:29:25;;;;;;;6.17;4.10;;;;;;;;;;4987092;28;20448;-71
2021/08/16 08:31:52;;;;;;;5.07;4.07;;;;;;;;;;4984018;28;20865;-71
2021/08/16 08:34:18;;;;;;;5.77;4.47;;;;;;;;;;4989721;28;20428;-71
2021/08/16 08:36:44;;;;;;;5.50;4.33;;;;;;;;;;4991526;28;20810;-71
2021/08/16 08:39:10;;;;;;;6.70;4.47;;;;;;;;;;4988067;28;20413;-71
2021/08/16 08:41:37;;;;;;;6.50;4.50;;;;;;;;;;4987529;28;20511;-72
2021/08/16 08:44:10;;;;;;;5.43;3.97;;;;;;;;;;4995098;28;20416;-72
2021/08/16 08:46:39;;;;;;;9.13;4.27;;;;;;;;;;4983848;28;20425;-72
2021/08/16 08:49:08;;;;;;;6.20;4.30;;;;;;;;;;4987623;28;20428;-72
2021/08/16 08:51:35;;;;;;;7.37;4.67;;;;;;;;;;4992286;28;20443;-72
2021/08/16 08:54:01;;;;;;;6.70;4.40;;;;;;;;;;4987845;28;20814;-72
2021/08/16 08:56:27;;;;;;;5.10;3.90;;;;;;;;;;4990619;28;20459;-72
2021/08/16 08:58:53;;;;;;;7.27;4.83;;;;;;;;;;4991694;28;20471;-72
2021/08/16 09:01:19;;;;;;;8.47;4.47;;;;;;;;;;4986029;28;20438;-72
2021/08/16 09:03:53;;;;;;;6.10;4.40;;;;;;;;;;4992327;28;20421;-72
2021/08/16 09:06:35;;;;;;;8.00;4.90;;;;;;;;;;4991326;28;20419;-72
2021/08/16 09:09:01;;;;;;;7.13;4.00;;;;;;;;;;4989503;28;20948;-72
2021/08/16 09:11:28;;;;;;;8.00;5.00;;;;;;;;;;4990760;28;20452;-73
2021/08/16 09:13:58;;;;;;;7.97;4.73;;;;;;;;;;4992758;28;20443;-72
2021/08/16 09:16:25;;;;;;;6.67;4.00;;;;;;;;;;4992701;28;20809;-71
2021/08/16 09:18:52;;;;;;;7.27;4.70;;;;;;;;;;4992681;28;20541;-71
2021/08/16 09:21:30;;;;;;;6.10;4.80;;;;;;;;;;4985870;28;20519;-71
2021/08/16 09:23:57;;;;;;;5.10;4.30;;;;;;;;;;4991923;28;20417;-73
2021/08/16 09:26:30;;;;;;;7.63;5.57;;;;;;;;;;4998556;28;20411;-72
2021/08/16 09:28:56;;;;;;;7.90;5.13;;;;;;;;;;4990803;28;20428;-71
2021/08/16 09:31:24;;;;;;;8.80;4.57;;;;;;;;;;4984707;28;20492;-71
2021/08/16 09:33:53;;;;;;;9.77;5.50;;;;;;;;;;4991495;28;20424;-72
2021/08/16 09:36:20;;;;;;;8.10;5.27;;;;;;;;;;4988270;28;20575;-72
2021/08/16 09:38:46;;;;;;;6.90;4.97;;;;;;;;;;4985041;28;20549;-71
2021/08/16 09:41:21;;;;;;;5.70;4.30;;;;;;;;;;4985232;28;20495;-72
2021/08/16 09:43:47;;;;;;;8.80;5.00;;;;;;;;;;4991323;28;22210;-72
2021/08/16 09:46:14;;;;;;;7.23;5.40;;;;;;;;;;4993422;28;20792;-73
2021/08/16 09:48:40;;;;;;;7.10;4.93;;;;;;;;;;4989333;28;20429;-72
2021/08/16 09:51:06;;;;;;;6.03;4.33;;;;;;;;;;4989881;28;20451;-72
2021/08/16 09:53:32;;;;;;;9.20;4.63;;;;;;;;;;4990108;28;20420;-71
2021/08/16 09:56:02;;;;;;;6.70;5.43;;;;;;;;;;4990579;28;20436;-71
2021/08/16 09:58:28;;;;;;;5.73;4.83;;;;;;;;;;4985234;28;20420;-71
2021/08/16 10:00:57;;;;;;;6.00;4.60;;;;;;;;;;4988769;28;20471;-71
2021/08/16 10:03:25;;;;;;;10.70;5.20;;;;;;;;;;4991016;28;20793;-71
2021/08/16 10:05:51;;;;;;;6.40;5.00;;;;;;;;;;4991652;28;20423;-71
2021/08/16 10:08:21;;;;;;;8.07;5.00;;;;;;;;;;4992126;28;20470;-71
2021/08/16 10:10:48;;;;;;;8.90;5.23;;;;;;;;;;4990227;28;20477;-70
2021/08/16 10:13:14;;;;;;;5.60;5.00;;;;;;;;;;4999760;28;20423;-71
2021/08/16 10:15:41;;;;;;;7.17;5.50;;;;;;;;;;4995161;28;20776;-71
2021/08/16 10:18:15;;;;;;;9.20;4.90;;;;;;;;;;4986001;28;20547;-71
2021/08/16 10:20:41;;;;;;;6.60;5.43;;;;;;;;;;4991320;28;20458;-71
2021/08/16 10:23:21;;;;;;;7.67;5.80;;;;;;;;;;4993119;28;20416;-71
2021/08/16 10:25:48;;;;;;;6.80;5.33;;;;;;;;;;4990899;28;20423;-71
2021/08/16 10:28:24;;;;;;;12.43;7.77;;;;;;;;;;4982847;28;20416;-71
2021/08/16 10:30:51;;;;;;;9.87;6.73;;;;;;;;;;4988423;28;20499;-71
2021/08/16 10:33:18;;;;;;;8.10;5.50;;;;;;;;;;4984568;28;20889;-70
2021/08/16 10:35:44;;;;;;;8.00;5.80;;;;;;;;;;4986361;28;20503;-70
2021/08/16 10:38:11;;;;;;;7.73;5.23;;;;;;;;;;4981736;28;20519;-70
2021/08/16 10:41:08;;;;;;;8.10;5.70;;;;;;;;;;4979222;28;20830;-72
2021/08/16 10:43:34;;;;;;;7.10;5.23;;;;;;;;;;4980043;28;20465;-71
2021/08/16 10:46:00;;;;;;;7.70;6.30;;;;;;;;;;4982082;28;20472;-71
2021/08/16 10:48:28;;;;;;;7.63;6.10;;;;;;;;;;4988622;28;20423;-71
2021/08/16 10:51:10;;;;;;;8.73;6.07;;;;;;;;;;4986436;28;20456;-71
2021/08/16 10:53:49;;;;;;;8.70;7.07;;;;;;;;;;4991628;28;20431;-71
2021/08/16 10:56:19;;;;;;;11.50;7.50;;;;;;;;;;4987768;28;20537;-71
2021/08/16 10:58:46;;;;;;;8.27;6.93;;;;;;;;;;4980724;28;20487;-71
2021/08/16 11:01:26;;;;;;;10.70;7.10;;;;;;;;;;4988992;28;20512;-69
2021/08/16 11:03:59;;;;;;;9.20;6.83;;;;;;;;;;4980401;28;20423;-70
2021/08/16 11:06:25;;;;;;;8.30;6.93;;;;;;;;;;4989335;28;20952;-70
2021/08/16 11:08:57;;;;;;;10.93;7.60;;;;;;;;;;4984379;28;20435;-70
2021/08/16 11:11:23;;;;;;;9.27;8.33;;;;;;;;;;4988459;28;20487;-71
2021/08/16 11:13:49;;;;;;;12.17;8.40;;;;;;;;;;4985877;28;20902;-73
2021/08/16 11:16:15;;;;;;;9.10;7.40;;;;;;;;;;4993270;28;20459;-73
2021/08/16 11:18:43;;;;;;;11.57;8.80;;;;;;;;;;4988848;28;20827;-73
2021/08/16 11:21:10;;;;;;;15.40;9.13;;;;;;;;;;4981995;28;20606;-74
2021/08/16 11:23:38;;;;;;;13.33;9.67;;;;;;;;;;4987802;28;20420;-72
2021/08/16 11:26:04;;;;;;;10.13;8.60;;;;;;;;;;4984577;28;20459;-73
2021/08/16 11:28:31;;;;;;;11.13;9.47;;;;;;;;;;4984977;28;20409;-73
2021/08/16 11:31:07;;;;;;;11.77;9.53;;;;;;;;;;4985752;28;20495;-74
2021/08/16 11:33:34;;;;;;;10.20;8.30;;;;;;;;;;4982656;28;20503;-73
2021/08/16 11:36:08;;;;;;;12.73;9.33;;;;;;;;;;4984256;28;20496;-73
2021/08/16 11:38:34;;;;;;;10.63;8.93;;;;;;;;;;4983358;28;20451;-75
2021/08/16 11:41:04;;;;;;;10.73;8.93;;;;;;;;;;4991696;28;20959;-74
2021/08/16 11:43:30;;;;;;;11.07;8.53;;;;;;;;;;4987803;28;20452;-70
2021/08/16 11:45:56;;;;;;;11.73;8.87;;;;;;;;;;4982769;28;20965;-71
2021/08/16 11:48:24;;;;;;;10.83;9.00;;;;;;;;;;4988985;28;20512;-74
2021/08/16 11:51:00;;;;;;;12.30;9.10;;;;;;;;;;4984153;28;20536;-72
2021/08/16 11:53:26;;;;;;;12.50;9.43;;;;;;;;;;4988237;28;20424;-75
2021/08/16 11:56:02;;;;;;;10.90;9.37;;;;;;;;;;4990487;28;20424;-72
2021/08/16 11:58:35;;;;;;;14.10;10.87;;;;;;;;;;4989841;28;20444;-74
2021/08/16 12:01:02;;;;;;;12.77;9.70;;;;;;;;;;4995947;28;20436;-72
2021/08/16 12:03:28;;;;;;;17.73;10.20;;;;;;;;;;4988766;28;20917;-74
2021/08/16 12:05:54;;;;;;;14.63;10.13;;;;;;;;;;4990732;28;20435;-73
2021/08/16 12:08:21;;;;;;;16.13;10.80;;;;;;;;;;4984556;28;20528;-73
2021/08/16 12:10:47;;;;;;;17.13;12.00;;;;;;;;;;4983975;28;20448;-73
2021/08/16 12:13:13;;;;;;;12.33;10.60;;;;;;;;;;4985825;28;20428;-75
2021/08/16 12:15:40;;;;;;;16.90;12.53;;;;;;;;;;4987920;28;20456;-75
2021/08/16 12:18:06;;;;;;;15.40;12.70;;;;;;;;;;4987912;28;20453;-71
2021/08/16 12:20:40;;;;;;;13.67;12.23;;;;;;;;;;4986320;28;20472;-71
2021/08/16 12:23:06;;;;;;;14.53;12.97;;;;;;;;;;4990765;28;20787;-72
2021/08/16 12:25:32;;;;;;;16.23;11.30;;;;;;;;;;4999871;28;20463;-73
2021/08/16 12:27:59;;;;;;;14.30;11.37;;;;;;;;;;4991474;28;20418;-72
2021/08/16 12:30:35;;;;;;;18.90;13.47;;;;;;;;;;4989394;28;20424;-73
2021/08/16 12:33:16;;;;;;;17.90;13.50;;;;;;;;;;4991141;28;20855;-71
2021/08/16 12:35:53;;;;;;;16.00;13.00;;;;;;;;;;4989494;28;20784;-70
2021/08/16 12:38:25;;;;;;;15.80;12.53;;;;;;;;;;4990017;28;20899;-72
2021/08/16 12:40:58;;;;;;;17.30;12.60;;;;;;;;;;4982913;28;20465;-69
2021/08/16 12:43:34;;;;;;;17.03;13.57;;;;;;;;;;4987097;28;20505;-69
2021/08/16 12:46:00;;;;;;;20.10;14.00;;;;;;;;;;4992167;28;20447;-68
2021/08/16 12:48:36;;;;;;;18.97;14.17;;;;;;;;;;4992396;28;20451;-69
2021/08/16 12:51:02;;;;;;;20.90;14.03;;;;;;;;;;4988862;28;20444;-69
2021/08/16 12:53:28;;;;;;;17.07;14.10;;;;;;;;;;4993558;28;20432;-70
2021/08/16 12:55:57;;;;;;;20.40;15.30;;;;;;;;;;4989792;28;20417;-69
2021/08/16 12:58:23;;;;;;;16.97;12.80;;;;;;;;;;4993547;28;20495;-68
2021/08/16 13:00:49;;;;;;;20.83;13.73;;;;;;;;;;4988558;28;20471;-68
2021/08/16 13:03:15;;;;;;;16.60;13.40;;;;;;;;;;4984626;28;20414;-69
2021/08/16 13:05:41;;;;;;;17.73;12.50;;;;;;;;;;4990016;28;20929;-67
2021/08/16 13:08:07;;;;;;;18.33;14.17;;;;;;;;;;4991357;28;20415;-69
2021/08/16 13:10:35;;;;;;;17.50;12.47;;;;;;;;;;4992064;28;20933;-70
2021/08/16 13:13:01;;;;;;;17.50;12.60;;;;;;;;;;4994013;28;20478;-70
2021/08/16 13:15:27;;;;;;;17.27;12.30;;;;;;;;;;4999767;28;20419;-70
2021/08/16 13:17:53;;;;;;;16.77;12.10;;;;;;;;;;4993830;28;20563;-70
2021/08/16 13:20:19;;;;;;;15.23;12.03;;;;;;;;;;4993012;28;20452;-71
2021/08/16 13:22:45;;;;;;;14.40;11.70;;;;;;;;;;4988617;28;20420;-72
2021/08/16 13:25:11;;;;;;;15.47;10.90;;;;;;;;;;4992119;28;20417;-69
2021/08/16 13:27:38;;;;;;;13.47;10.93;;;;;;;;;;4994175;28;20417;-70
2021/08/16 13:30:05;;;;;;;14.87;11.03;;;;;;;;;;4986617;28;21256;-70
2021/08/16 13:32:31;;;;;;;21.53;13.40;;;;;;;;;;4990335;28;20440;-71
2021/08/16 13:34:57;;;;;;;14.70;11.93;;;;;;;;;;4992518;28;20435;-71
2021/08/16 13:37:23;;;;;;;16.70;12.87;;;;;;;;;;4988936;28;20817;-71
2021/08/16 13:39:49;;;;;;;16.07;11.20;;;;;;;;;;4982472;28;20923;-69
2021/08/16 13:42:15;;;;;;;19.67;13.07;;;;;;;;;;4989198;28;20850;-70
2021/08/16 13:44:41;;;;;;;16.60;12.23;;;;;;;;;;4988558;28;20420;-71
2021/08/16 13:47:07;;;;;;;16.80;13.30;;;;;;;;;;5009183;28;20455;-69
2021/08/16 13:49:34;;;;;;;15.23;12.07;;;;;;;;;;4996090;28;20988;-70
2021/08/16 13:52:00;;;;;;;18.20;12.50;;;;;;;;;;4996148;28;20462;-74
2021/08/16 13:54:26;;;;;;;14.77;11.20;;;;;;;;;;4989504;28;20422;-70
2021/08/16 13:56:52;;;;;;;16.13;12.07;;;;;;;;;;4990321;28;20540;-69
2021/08/16 13:59:18;;;;;;;17.03;13.63;;;;;;;;;;4991592;28;20888;-70
2021/08/16 14:01:44;;;;;;;22.23;13.17;;;;;;;;;;4985233;28;20540;-74
2021/08/16 14:04:10;;;;;;;15.17;12.13;;;;;;;;;;4989349;28;20413;-72
2021/08/16 14:06:36;;;;;;;14.33;12.10;;;;;;;;;;4988792;28;20440;-72
2021/08/16 14:09:02;;;;;;;18.67;13.53;;;;;;;;;;4986092;28;20412;-72
2021/08/16 14:11:28;;;;;;;16.80;10.97;;;;;;;;;;4985919;28;20452;-73
2021/08/16 14:13:54;;;;;;;12.07;10.53;;;;;;;;;;4989376;28;20417;-72
2021/08/16 14:16:20;;;;;;;13.43;11.17;;;;;;;;;;4986334;28;20432;-72
2021/08/16 14:18:46;;;;;;;14.57;10.67;;;;;;;;;;4988687;28;20925;-72
2021/08/16 14:21:12;;;;;;;14.17;10.10;;;;;;;;;;4984282;28;20450;-70
2021/08/16 14:23:39;;;;;;;10.77;9.30;;;;;;;;;;4991960;28;20428;-73
2021/08/16 14:26:06;;;;;;;12.33;9.73;;;;;;;;;;4989052;28;20499;-70
2021/08/16 14:28:32;;;;;;;12.97;10.47;;;;;;;;;;4986312;28;20895;-70
2021/08/16 14:30:58;;;;;;;14.03;10.50;;;;;;;;;;4986033;28;20448;-70